createdAt,value
2024-03-12T00:03:01.497Z,47.98
2024-03-12T00:07:03.119Z,47.65
2024-03-12T00:11:07.600Z,47.75
2024-03-12T00:15:09.228Z,47.70
2024-03-12T00:19:11.107Z,47.63
2024-03-12T00:23:13.088Z,47.42
2024-03-12T00:27:14.661Z,47.29
2024-03-12T00:31:17.640Z,46.77
2024-03-12T00:35:19.199Z,47.13
2024-03-12T00:39:23.133Z,46.73
2024-03-12T00:43:24.619Z,46.67
2024-03-12T00:47:26.253Z,46.10
2024-03-12T00:51:30.704Z,46.48
2024-03-12T00:55:32.796Z,46.04
2024-03-12T00:59:34.337Z,46.07
2024-03-12T01:03:35.833Z,46.32
2024-03-12T01:07:39.433Z,46.45
2024-03-12T01:11:41.415Z,46.03
2024-03-12T01:15:42.898Z,45.67
2024-03-12T01:19:44.357Z,45.67
2024-03-12T01:23:45.837Z,45.68
2024-03-12T01:27:47.910Z,45.64
2024-03-12T01:31:51.842Z,45.86
2024-03-12T01:36:06.329Z,45.35
2024-03-12T01:40:20.972Z,45.63
2024-03-12T01:44:23.375Z,45.55
2024-03-12T01:48:25.480Z,45.20
2024-03-12T01:52:27.005Z,45.48
2024-03-12T01:56:28.463Z,45.35
2024-03-12T02:00:33.142Z,45.00
2024-03-12T02:04:35.266Z,45.34
2024-03-12T02:08:36.943Z,45.04
2024-03-12T02:12:38.559Z,44.94
2024-03-12T02:16:40.139Z,44.64
2024-03-12T02:20:41.822Z,44.54
2024-03-12T02:24:43.334Z,44.66
2024-03-12T02:28:45.196Z,45.01
2024-03-12T02:32:48.356Z,44.96
2024-03-12T02:36:50.219Z,44.95
2024-03-12T02:40:51.682Z,44.67
2024-03-12T02:44:53.167Z,44.26
2024-03-12T02:48:55.234Z,44.59
2024-03-12T02:52:56.771Z,44.82
2024-03-12T02:56:58.309Z,44.62
2024-03-12T03:01:00.027Z,44.67
2024-03-12T03:05:01.550Z,44.49
2024-03-12T03:09:10.724Z,44.13
2024-03-12T03:13:12.483Z,44.35
2024-03-12T03:17:14.095Z,43.72
2024-03-12T03:21:15.553Z,44.00
2024-03-12T03:25:17.224Z,43.64
2024-03-12T03:29:22.399Z,44.15
2024-03-12T03:33:24.083Z,44.02
2024-03-12T03:37:31.878Z,43.96
2024-03-12T03:41:33.348Z,43.78
2024-03-12T03:45:34.917Z,43.97
2024-03-12T03:49:36.425Z,43.13
2024-03-12T03:53:37.903Z,43.53
2024-03-12T03:57:39.528Z,43.61
2024-03-12T04:01:41.051Z,43.76
2024-03-12T04:05:42.730Z,43.65
2024-03-12T04:09:44.759Z,43.64
2024-03-12T04:13:46.253Z,43.70
2024-03-12T04:17:47.914Z,43.70
2024-03-12T04:21:49.478Z,43.73
2024-03-12T04:25:51.467Z,43.78
2024-03-12T04:29:53.004Z,42.88
2024-03-12T04:33:54.823Z,43.49
2024-03-12T04:37:56.531Z,43.54
2024-03-12T04:42:03.353Z,43.58
2024-03-12T04:46:05.052Z,43.76
2024-03-12T04:50:09.068Z,43.90
2024-03-12T04:54:10.816Z,43.31
2024-03-12T04:58:12.327Z,43.82
2024-03-12T05:02:13.886Z,43.63
2024-03-12T05:06:15.421Z,43.91
2024-03-12T05:10:18.217Z,44.13
2024-03-12T05:14:19.905Z,44.48
2024-03-12T05:18:21.419Z,43.94
2024-03-12T05:22:23.480Z,43.76
2024-03-12T05:26:29.866Z,44.49
2024-03-12T05:30:31.430Z,44.49
2024-03-12T05:34:40.619Z,44.16
2024-03-12T05:38:56.578Z,44.23
2024-03-12T05:43:16.811Z,44.32
2024-03-12T05:47:36.951Z,44.58
2024-03-12T05:51:39.193Z,44.76
2024-03-12T05:55:42.637Z,44.45
2024-03-12T05:59:44.117Z,44.68
2024-03-12T06:03:45.762Z,44.83
2024-03-12T06:07:49.602Z,44.75
2024-03-12T06:11:51.137Z,45.12
2024-03-12T06:15:52.673Z,44.63
2024-03-12T06:19:54.325Z,45.00
2024-03-12T06:23:55.888Z,44.55
2024-03-12T06:28:06.241Z,45.35
2024-03-12T06:32:08.019Z,45.43
2024-03-12T06:36:13.798Z,44.55
2024-03-12T06:40:18.288Z,44.57
2024-03-12T06:44:23.339Z,45.30
2024-03-12T06:48:24.824Z,45.47
2024-03-12T06:52:27.846Z,45.15
2024-03-12T06:56:30.121Z,45.21
2024-03-12T07:00:38.841Z,45.16
2024-03-12T07:04:49.458Z,45.42
2024-03-12T07:08:52.123Z,45.71
2024-03-12T07:12:55.033Z,45.28
2024-03-12T07:16:56.871Z,45.46
2024-03-12T07:20:58.344Z,45.78
2024-03-12T07:25:00.534Z,45.75
2024-03-12T07:29:07.893Z,46.23
2024-03-12T07:33:09.507Z,46.27
2024-03-12T07:37:11.526Z,46.25
2024-03-12T07:41:13.130Z,46.54
2024-03-12T07:45:16.113Z,46.12
2024-03-12T07:49:22.522Z,46.45
2024-03-12T07:53:24.108Z,46.29
2024-03-12T07:57:25.822Z,46.32
2024-03-12T08:01:27.770Z,46.86
2024-03-12T08:05:32.054Z,46.78
2024-03-12T08:09:35.410Z,46.88
2024-03-12T08:13:36.944Z,46.72
2024-03-12T08:17:39.372Z,46.93
2024-03-12T08:21:41.199Z,47.02
2024-03-12T08:25:54.767Z,47.05
2024-03-12T08:29:58.699Z,46.92
2024-03-12T08:34:00.402Z,47.16
2024-03-12T08:38:05.661Z,47.87
2024-03-12T08:42:10.495Z,47.60
2024-03-12T08:46:12.452Z,48.37
2024-03-12T08:50:14.295Z,47.72
2024-03-12T08:54:16.035Z,48.14
2024-03-12T08:58:18.520Z,47.91
2024-03-12T09:02:20.023Z,47.81
2024-03-12T09:06:21.822Z,48.30
2024-03-12T09:10:23.811Z,47.85
2024-03-12T09:14:25.860Z,48.67
2024-03-12T09:18:27.858Z,48.46
2024-03-12T09:22:29.652Z,48.81
2024-03-12T09:26:31.286Z,48.78
2024-03-12T09:30:35.294Z,48.56
2024-03-12T09:34:40.439Z,49.16
2024-03-12T09:38:43.276Z,48.88
2024-03-12T09:42:48.398Z,48.85
2024-03-12T09:46:50.409Z,49.48
2024-03-12T09:50:51.983Z,49.13
2024-03-12T09:54:54.462Z,49.23
2024-03-12T09:58:57.999Z,50.01
2024-03-12T10:03:00.877Z,49.57
2024-03-12T10:07:03.103Z,49.22
2024-03-12T10:11:09.907Z,49.17
2024-03-12T10:15:13.119Z,49.43
2024-03-12T10:19:19.583Z,49.76
2024-03-12T10:23:31.629Z,49.37
2024-03-12T10:27:33.171Z,49.50
2024-03-12T10:31:37.261Z,49.79
2024-03-12T10:35:42.471Z,49.33
2024-03-12T10:39:45.350Z,49.18
2024-03-12T10:43:56.414Z,49.41
2024-03-12T10:47:59.582Z,50.53
2024-03-12T10:52:02.302Z,50.47
2024-03-12T10:56:11.543Z,51.48
2024-03-12T11:00:21.809Z,51.28
2024-03-12T11:04:24.162Z,51.46
2024-03-12T11:08:27.083Z,51.63
2024-03-12T11:12:28.654Z,50.86
2024-03-12T11:16:35.524Z,51.41
2024-03-12T11:20:43.126Z,51.95
2024-03-12T11:24:51.153Z,52.04
2024-03-12T11:28:52.822Z,51.98
2024-03-12T11:32:54.436Z,51.84
2024-03-12T11:37:13.984Z,52.36
2024-03-12T11:41:17.646Z,52.17
2024-03-12T11:45:48.212Z,52.28
2024-03-12T11:49:51.258Z,52.04
2024-03-12T11:53:53.555Z,52.05
2024-03-12T11:57:56.105Z,52.21
2024-03-12T12:02:00.144Z,52.21
2024-03-12T12:06:03.781Z,52.11
2024-03-12T12:10:05.315Z,52.10
2024-03-12T12:14:09.332Z,52.40
2024-03-12T12:18:11.416Z,52.27
2024-03-12T12:22:14.218Z,52.48
2024-03-12T12:26:21.412Z,52.02
2024-03-12T12:30:23.298Z,51.84
2024-03-12T12:34:29.845Z,52.12
2024-03-12T12:38:33.364Z,51.83
2024-03-12T12:42:39.675Z,52.30
2024-03-12T12:46:41.401Z,52.16
2024-03-12T12:50:44.382Z,52.59
2024-03-12T12:54:49.851Z,52.24
2024-03-12T12:58:52.750Z,51.84
2024-03-12T13:02:54.659Z,51.88
2024-03-12T13:06:58.050Z,52.22
2024-03-12T13:11:07.122Z,52.35
2024-03-12T13:15:29.558Z,52.15
2024-03-12T13:19:32.007Z,52.36
2024-03-12T13:23:36.113Z,51.91
2024-03-12T13:27:37.715Z,51.50
2024-03-12T13:31:41.226Z,51.37
2024-03-12T13:35:43.376Z,51.91
2024-03-12T13:39:44.986Z,51.42
2024-03-12T13:43:46.571Z,51.44
2024-03-12T13:47:48.155Z,51.95
2024-03-12T13:51:49.789Z,51.48
2024-03-12T13:55:51.242Z,51.82
2024-03-12T13:59:52.770Z,51.44
2024-03-12T14:03:55.665Z,51.23
2024-03-12T14:07:57.432Z,51.69
2024-03-12T14:11:59.914Z,52.03
2024-03-12T14:16:02.914Z,51.88
2024-03-12T14:20:11.966Z,52.04
2024-03-12T14:24:13.450Z,51.83
2024-03-12T14:28:15.455Z,52.04
2024-03-12T14:32:17.275Z,52.33
2024-03-12T14:36:18.830Z,52.33
2024-03-12T14:40:21.127Z,52.49
2024-03-12T14:44:23.052Z,52.45
2024-03-12T14:48:24.643Z,52.34
2024-03-12T14:52:26.772Z,51.88
2024-03-12T14:56:28.430Z,51.67
2024-03-12T15:00:30.432Z,51.81
2024-03-12T15:04:37.467Z,52.06
2024-03-12T15:08:39.628Z,52.21
2024-03-12T15:12:41.947Z,51.92
2024-03-12T15:16:43.580Z,51.68
2024-03-12T15:20:47.330Z,52.20
2024-03-12T15:24:49.382Z,51.85
2024-03-12T15:28:50.928Z,51.83
2024-03-12T15:32:52.946Z,51.96
2024-03-12T15:36:55.258Z,51.50
2024-03-12T15:40:58.457Z,51.67
2024-03-12T15:45:00.059Z,51.84
2024-03-12T15:49:03.582Z,51.96
2024-03-12T15:53:05.139Z,51.87
2024-03-12T15:57:09.145Z,52.00
2024-03-12T16:01:14.173Z,51.27
2024-03-12T16:05:16.115Z,51.41
2024-03-12T16:09:18.236Z,52.02
2024-03-12T16:13:19.904Z,51.74
2024-03-12T16:17:21.541Z,51.47
2024-03-12T16:21:23.475Z,51.72
2024-03-12T16:25:26.064Z,51.69
2024-03-12T16:29:29.781Z,51.49
2024-03-12T16:33:31.381Z,51.36
2024-03-12T16:37:32.918Z,51.96
2024-03-12T16:41:35.375Z,51.64
2024-03-12T16:45:36.947Z,51.58
2024-03-12T16:49:38.556Z,51.34
2024-03-12T16:53:40.140Z,51.67
2024-03-12T16:57:42.075Z,51.79
2024-03-12T17:01:44.996Z,51.24
2024-03-12T17:05:47.070Z,51.21
2024-03-12T17:09:48.863Z,51.13
2024-03-12T17:13:50.927Z,51.03
2024-03-12T17:17:52.946Z,50.62
2024-03-12T17:21:55.094Z,50.46
2024-03-12T17:25:56.969Z,50.86
2024-03-12T17:30:00.823Z,51.19
2024-03-12T17:34:05.733Z,50.39
2024-03-12T17:38:13.951Z,50.40
2024-03-12T17:42:21.197Z,50.45
2024-03-12T17:46:24.353Z,50.35
2024-03-12T17:50:31.513Z,50.84
2024-03-12T17:54:33.367Z,50.54
2024-03-12T17:58:38.539Z,50.69
2024-03-12T18:02:40.365Z,50.75
2024-03-12T18:06:43.340Z,50.29
2024-03-12T18:10:48.569Z,50.44
2024-03-12T18:14:50.113Z,50.62
2024-03-12T18:18:51.688Z,50.73
2024-03-12T18:22:54.301Z,50.53
2024-03-12T18:26:58.320Z,50.52
2024-03-12T18:31:00.653Z,50.86
2024-03-12T18:35:02.254Z,50.71
2024-03-12T18:39:04.946Z,50.54
2024-03-12T18:43:08.470Z,50.64
2024-03-12T18:47:10.694Z,51.02
2024-03-12T18:51:12.383Z,51.90
2024-03-12T18:55:14.653Z,52.79
2024-03-12T18:59:16.476Z,51.92
2024-03-12T19:03:20.977Z,53.30
2024-03-12T19:07:23.665Z,54.48
2024-03-12T19:11:25.861Z,53.11
2024-03-12T19:15:36.680Z,54.28
2024-03-12T19:19:39.262Z,53.88
2024-03-12T19:23:40.749Z,54.25
2024-03-12T19:27:46.935Z,54.47
2024-03-12T19:31:48.498Z,53.82
2024-03-12T19:35:51.864Z,54.84
2024-03-12T19:39:54.280Z,53.96
2024-03-12T19:43:57.658Z,54.30
2024-03-12T19:47:59.783Z,54.77
2024-03-12T19:52:02.300Z,54.26
2024-03-12T19:56:04.796Z,55.01
2024-03-12T20:00:13.504Z,54.68
2024-03-12T20:04:15.223Z,54.68
2024-03-12T20:08:16.852Z,54.48
2024-03-12T20:12:18.345Z,54.79
2024-03-12T20:16:20.279Z,54.90
2024-03-12T20:20:23.858Z,55.03
2024-03-12T20:24:25.733Z,54.68
2024-03-12T20:28:27.300Z,54.25
2024-03-12T20:32:28.859Z,54.46
2024-03-12T20:36:33.110Z,54.71
2024-03-12T20:40:34.669Z,54.30
2024-03-12T20:44:37.425Z,54.51
2024-03-12T20:48:40.704Z,54.81
2024-03-12T20:52:42.339Z,54.51
2024-03-12T20:56:46.773Z,54.92
2024-03-12T21:00:48.357Z,55.02
2024-03-12T21:04:49.915Z,54.19
2024-03-12T21:08:52.162Z,54.66
2024-03-12T21:12:53.763Z,54.59
2024-03-12T21:16:55.722Z,54.79
2024-03-12T21:20:57.253Z,54.72
2024-03-12T21:25:00.640Z,54.62
2024-03-12T21:29:02.488Z,54.88
2024-03-12T21:33:04.934Z,54.48
2024-03-12T21:37:07.746Z,54.89
2024-03-12T21:41:13.153Z,54.58
2024-03-12T21:45:16.708Z,54.03
2024-03-12T21:49:18.597Z,54.24
2024-03-12T21:53:20.838Z,54.57
2024-03-12T21:57:23.019Z,54.48
2024-03-12T22:01:25.470Z,54.24
2024-03-12T22:05:29.526Z,53.83
2024-03-12T22:09:31.999Z,53.99
2024-03-12T22:13:39.699Z,53.94
2024-03-12T22:17:46.566Z,53.96
2024-03-12T22:21:49.222Z,53.78
2024-03-12T22:25:50.914Z,53.85
2024-03-12T22:29:52.396Z,53.68
2024-03-12T22:33:55.797Z,53.70
2024-03-12T22:37:57.948Z,53.36
2024-03-12T22:41:59.775Z,53.80
2024-03-12T22:46:11.913Z,53.71
2024-03-12T22:50:15.327Z,53.46
2024-03-12T22:54:19.221Z,52.75
2024-03-12T22:58:21.056Z,52.47
2024-03-12T23:02:23.362Z,52.85
2024-03-12T23:06:26.256Z,52.29
2024-03-12T23:10:27.782Z,52.41
2024-03-12T23:14:30.672Z,52.26
2024-03-12T23:18:32.164Z,51.82
2024-03-12T23:22:34.168Z,51.85
2024-03-12T23:26:35.752Z,51.91
2024-03-12T23:30:37.276Z,51.47
2024-03-12T23:34:38.781Z,51.29
2024-03-12T23:38:40.886Z,51.25
2024-03-12T23:42:42.484Z,51.35
2024-03-12T23:46:43.936Z,51.05
2024-03-12T23:50:45.590Z,50.40
2024-03-12T23:54:47.130Z,51.27
2024-03-12T23:58:49.215Z,50.86
